createdAt,value
2022-11-05T00:01:23.276Z,13.60
2022-11-05T00:06:40.858Z,18.30
2022-11-05T00:11:56.500Z,14.55
2022-11-05T00:16:54.695Z,14.27
2022-11-05T00:22:11.973Z,13.27
2022-11-05T00:27:10.459Z,13.88
2022-11-05T00:32:08.674Z,12.60
2022-11-05T00:37:08.278Z,13.75
2022-11-05T00:42:23.723Z,13.82
2022-11-05T00:47:39.077Z,12.70
2022-11-05T00:57:54.146Z,13.98
2022-11-05T01:02:52.493Z,13.27
2022-11-05T01:07:52.414Z,12.95
2022-11-05T01:12:50.832Z,13.60
2022-11-05T01:17:51.322Z,13.45
2022-11-05T01:22:49.538Z,14.23
2022-11-05T01:27:47.812Z,13.95
2022-11-05T01:32:46.047Z,14.40
2022-11-05T01:37:46.116Z,14.30
2022-11-05T01:42:44.575Z,14.23
2022-11-05T01:47:47.103Z,16.45
2022-11-05T01:52:47.335Z,13.02
2022-11-05T01:57:45.810Z,13.82
2022-11-05T02:02:44.337Z,14.88
2022-11-05T02:07:44.198Z,15.43
2022-11-05T02:12:45.627Z,15.18
2022-11-05T02:17:51.359Z,13.52
2022-11-05T02:23:08.542Z,14.05
2022-11-05T02:28:16.356Z,16.25
2022-11-05T02:33:24.286Z,15.18
2022-11-05T02:38:28.215Z,15.50
2022-11-05T02:43:32.212Z,13.30
2022-11-05T02:48:37.451Z,13.83
2022-11-05T02:53:39.960Z,13.95
2022-11-05T02:58:38.242Z,14.98
2022-11-05T03:03:38.900Z,14.63
2022-11-05T03:08:44.297Z,13.75
2022-11-05T03:13:48.911Z,15.82
2022-11-05T03:18:52.418Z,16.15
2022-11-05T03:23:53.331Z,15.90
2022-11-05T03:28:53.626Z,25.13
2022-11-05T03:33:54.589Z,23.58
2022-11-05T03:38:53.959Z,21.25
2022-11-05T03:43:55.870Z,21.27
2022-11-05T03:48:56.798Z,17.63
2022-11-05T03:53:57.339Z,16.23
2022-11-05T03:58:59.137Z,15.13
2022-11-05T04:03:59.079Z,15.63
2022-11-05T04:09:14.667Z,18.08
2022-11-05T04:14:12.873Z,14.52
2022-11-05T04:19:12.463Z,16.13
2022-11-05T04:24:09.705Z,17.63
2022-11-05T04:29:25.852Z,18.85
2022-11-05T04:34:25.398Z,16.63
2022-11-05T04:39:23.646Z,16.63
2022-11-05T04:44:21.879Z,15.77
2022-11-05T04:49:20.143Z,14.10
2022-11-05T04:54:19.731Z,15.50
2022-11-05T04:59:17.941Z,17.95
2022-11-05T05:04:16.162Z,20.63
2022-11-05T05:09:14.423Z,24.45
2022-11-05T05:14:14.011Z,19.30
2022-11-05T05:19:12.244Z,17.38
2022-11-05T05:24:11.098Z,17.52
2022-11-05T05:29:09.979Z,19.85
2022-11-05T05:34:12.169Z,18.10
2022-11-05T05:39:11.393Z,18.80
2022-11-05T05:44:09.651Z,21.73
2022-11-05T05:49:12.641Z,20.75
2022-11-05T05:54:11.750Z,19.17
2022-11-05T05:59:09.963Z,19.13
2022-11-05T06:04:10.221Z,18.50
2022-11-05T06:09:08.572Z,23.00
2022-11-05T06:14:06.854Z,31.67
2022-11-05T06:19:05.110Z,32.13
2022-11-05T06:24:04.893Z,23.80
2022-11-05T06:29:03.135Z,23.25
2022-11-05T06:34:01.369Z,25.50
2022-11-05T06:38:59.576Z,20.33
2022-11-05T06:43:59.204Z,24.95
2022-11-05T06:48:57.550Z,27.58
2022-11-05T06:53:56.173Z,26.27
2022-11-05T06:58:54.560Z,24.13
2022-11-05T07:03:54.334Z,21.48
2022-11-05T07:08:52.581Z,24.25
2022-11-05T07:13:50.972Z,21.20
2022-11-05T07:18:49.273Z,22.60
2022-11-05T07:23:49.015Z,22.38
2022-11-05T07:28:47.244Z,21.35
2022-11-05T07:33:45.591Z,21.83
2022-11-05T07:38:43.969Z,21.38
2022-11-05T07:43:43.707Z,21.88
2022-11-05T07:48:42.437Z,22.65
2022-11-05T07:53:45.043Z,23.63
2022-11-05T07:58:44.962Z,25.45
2022-11-05T08:03:43.291Z,26.15
2022-11-05T08:08:41.619Z,27.65
2022-11-05T08:13:40.286Z,22.17
2022-11-05T08:18:40.535Z,21.35
2022-11-05T08:23:39.473Z,21.95
2022-11-05T08:28:37.834Z,19.83
2022-11-05T08:33:36.123Z,21.30
2022-11-05T08:38:35.877Z,20.23
2022-11-05T08:43:34.227Z,19.58
2022-11-05T08:48:32.664Z,21.67
2022-11-05T08:53:31.499Z,21.52
2022-11-05T08:58:31.337Z,18.38
2022-11-05T09:03:29.651Z,19.13
2022-11-05T09:08:28.025Z,19.60
2022-11-05T09:13:26.961Z,17.63
2022-11-05T09:18:28.175Z,20.15
2022-11-05T09:23:26.684Z,20.25
2022-11-05T09:28:25.627Z,19.40
2022-11-05T09:33:25.493Z,17.33
2022-11-05T09:38:25.199Z,19.17
2022-11-05T09:43:31.399Z,20.33
2022-11-05T09:48:33.286Z,18.80
2022-11-05T09:53:33.498Z,17.63
2022-11-05T09:58:37.460Z,19.67
2022-11-05T10:03:37.814Z,18.97
2022-11-05T10:08:41.490Z,19.38
2022-11-05T10:13:42.211Z,19.98
2022-11-05T10:18:42.409Z,19.55
2022-11-05T10:23:42.356Z,18.17
2022-11-05T10:28:40.776Z,19.55
2022-11-05T10:33:40.940Z,17.48
2022-11-05T10:38:39.520Z,20.30
2022-11-05T10:43:43.519Z,19.90
2022-11-05T10:48:49.648Z,19.27
2022-11-05T10:53:55.952Z,19.83
2022-11-05T10:58:59.952Z,18.95
2022-11-05T11:04:22.014Z,18.77
2022-11-05T11:09:24.890Z,21.27
2022-11-05T11:14:24.587Z,21.95
2022-11-05T11:19:25.560Z,22.98
2022-11-05T11:24:23.966Z,20.25
2022-11-05T11:29:25.533Z,22.77
2022-11-05T11:34:28.666Z,22.40
2022-11-05T11:39:29.000Z,23.00
2022-11-05T11:44:29.691Z,21.27
2022-11-05T11:49:33.395Z,22.20
2022-11-05T11:54:32.716Z,21.30
2022-11-05T12:00:02.043Z,21.73
2022-11-05T12:04:59.687Z,21.27
2022-11-05T12:10:11.498Z,24.33
2022-11-05T12:15:22.053Z,24.08
2022-11-05T12:20:26.469Z,21.42
2022-11-05T12:25:27.979Z,21.80
2022-11-05T12:30:26.584Z,21.17
2022-11-05T12:35:31.646Z,22.27
2022-11-05T12:40:42.448Z,23.15
2022-11-05T12:45:45.551Z,20.88
2022-11-05T12:50:46.336Z,22.30
2022-11-05T12:55:48.758Z,20.85
2022-11-05T13:00:48.950Z,21.15
2022-11-05T13:05:49.872Z,22.25
2022-11-05T13:10:51.976Z,20.75
2022-11-05T13:15:51.988Z,21.90
2022-11-05T13:20:53.450Z,21.55
2022-11-05T13:25:54.339Z,21.92
2022-11-05T13:30:53.327Z,22.30
2022-11-05T13:36:16.384Z,22.35
2022-11-05T13:41:21.754Z,21.77
2022-11-05T13:46:34.881Z,21.15
2022-11-05T13:51:42.455Z,21.08
2022-11-05T13:56:55.200Z,21.92
2022-11-05T14:01:56.016Z,21.17
2022-11-05T14:07:05.771Z,18.52
2022-11-05T14:12:05.312Z,20.65
2022-11-05T14:17:16.844Z,18.83
2022-11-05T14:22:38.012Z,19.75
2022-11-05T14:27:43.959Z,17.85
2022-11-05T14:32:50.113Z,18.25
2022-11-05T14:37:54.023Z,18.42
2022-11-05T14:42:53.064Z,18.98
2022-11-05T14:47:55.006Z,18.90
2022-11-05T14:52:55.848Z,20.35
2022-11-05T14:58:06.015Z,17.65
2022-11-05T15:03:05.621Z,25.80
2022-11-05T15:08:18.928Z,21.52
2022-11-05T15:13:26.688Z,21.67
2022-11-05T15:18:30.508Z,20.90
2022-11-05T15:23:35.599Z,22.70
2022-11-05T15:28:37.148Z,19.63
2022-11-05T15:33:35.494Z,23.52
2022-11-05T15:38:35.181Z,21.50
2022-11-05T15:43:34.302Z,21.92
2022-11-05T15:48:34.612Z,26.38
2022-11-05T15:53:56.548Z,22.70
2022-11-05T15:58:54.662Z,22.90
2022-11-05T16:03:55.863Z,21.60
2022-11-05T16:08:54.346Z,19.95
2022-11-05T16:13:53.102Z,20.35
2022-11-05T16:18:51.345Z,21.35
2022-11-05T16:23:55.590Z,21.85
2022-11-05T16:28:53.863Z,21.88
2022-11-05T16:33:52.387Z,22.42
2022-11-05T16:38:50.552Z,22.85
2022-11-05T16:43:53.912Z,32.35
2022-11-05T16:48:52.116Z,21.60
2022-11-05T16:53:50.398Z,22.65
2022-11-05T16:58:49.870Z,24.20
2022-11-05T17:03:51.160Z,24.17
2022-11-05T17:08:49.869Z,21.90
2022-11-05T17:13:48.323Z,22.00
2022-11-05T17:18:46.564Z,22.98
2022-11-05T17:23:46.103Z,25.02
2022-11-05T17:28:44.365Z,23.05
2022-11-05T17:33:42.712Z,25.65
2022-11-05T17:38:41.310Z,22.42
2022-11-05T17:43:40.895Z,24.17
2022-11-05T17:48:39.375Z,25.23
2022-11-05T17:53:37.763Z,25.15
2022-11-05T17:58:36.348Z,26.55
2022-11-05T18:03:36.071Z,30.65
2022-11-05T18:08:34.683Z,27.42
2022-11-05T18:13:32.938Z,28.35
2022-11-05T18:18:31.375Z,26.00
2022-11-05T18:23:31.044Z,25.50
2022-11-05T18:28:32.138Z,27.30
2022-11-05T18:33:30.412Z,26.65
2022-11-05T18:38:28.723Z,28.08
2022-11-05T18:43:28.362Z,24.70
2022-11-05T18:48:26.577Z,29.98
2022-11-05T18:53:24.737Z,33.65
2022-11-05T18:58:22.980Z,38.13
2022-11-05T19:03:22.584Z,35.30
2022-11-05T19:08:20.858Z,37.33
2022-11-05T19:13:19.038Z,30.92
2022-11-05T19:18:17.255Z,30.08
2022-11-05T19:23:16.992Z,33.72
2022-11-05T19:28:15.464Z,28.30
2022-11-05T19:33:13.915Z,29.92
2022-11-05T19:38:12.301Z,30.98
2022-11-05T19:43:12.123Z,30.15
2022-11-05T19:48:13.503Z,30.58
2022-11-05T19:53:16.128Z,29.83
2022-11-05T19:58:16.012Z,30.95
2022-11-05T20:03:14.235Z,32.22
2022-11-05T20:08:12.676Z,33.92
2022-11-05T20:13:15.541Z,33.20
2022-11-05T20:18:18.259Z,35.03
2022-11-05T20:23:16.720Z,33.20
2022-11-05T20:28:15.035Z,32.65
2022-11-05T20:33:13.424Z,32.90
2022-11-05T20:38:13.283Z,32.13
2022-11-05T20:43:11.662Z,32.53
2022-11-05T20:48:10.147Z,31.60
2022-11-05T20:53:08.687Z,32.15
2022-11-05T20:58:08.275Z,34.75
2022-11-05T21:03:06.592Z,33.30
2022-11-05T21:08:04.872Z,30.45
2022-11-05T21:13:03.143Z,29.10
2022-11-05T21:18:02.822Z,29.38
2022-11-05T21:23:01.041Z,29.85
2022-11-05T21:27:59.355Z,28.02
2022-11-05T21:32:57.656Z,28.60
2022-11-05T21:37:57.392Z,29.02
2022-11-05T21:42:55.714Z,27.00
2022-11-05T21:47:53.921Z,25.92
2022-11-05T21:53:09.312Z,23.83
2022-11-05T21:58:29.900Z,24.75
2022-11-05T22:03:28.377Z,24.73
2022-11-05T22:08:27.327Z,24.48
2022-11-05T22:13:27.005Z,23.80
2022-11-05T22:18:25.263Z,22.42
2022-11-05T22:23:23.496Z,22.90
2022-11-05T22:28:21.730Z,23.58
2022-11-05T22:33:21.330Z,22.40
2022-11-05T22:38:19.545Z,21.58
2022-11-05T22:43:17.782Z,21.75
2022-11-05T22:48:16.248Z,21.67
2022-11-05T22:53:15.987Z,20.30
2022-11-05T22:58:14.462Z,21.35
2022-11-05T23:03:12.930Z,20.50
2022-11-05T23:08:28.758Z,20.65
2022-11-05T23:13:28.323Z,20.50
2022-11-05T23:18:44.090Z,21.20
2022-11-05T23:23:59.527Z,20.13
2022-11-05T23:28:59.083Z,20.98
2022-11-05T23:33:57.326Z,21.85
2022-11-05T23:38:55.479Z,21.13
2022-11-05T23:44:13.128Z,20.23
2022-11-05T23:49:12.715Z,20.35
2022-11-05T23:54:10.976Z,20.92
2022-11-05T23:59:09.205Z,20.52
